• Join FlightAware (Why Join?)
  • Login
  • US Flag 
11:01PM EST


 

Airport Tracker/Info


-or-


 

Live Flight TrackerFlight Track Log ✈ DAL6091 ✈ 26-Apr-2013 ✈ KRIC - KJFK

Flight Track Log - Related Links

Times and Time Zones

All times are in EDT time to prevent confusion due to time zone crossing. See the DAL6091 flight status page for this flight to view local times or setup timezone preferences in your user account.

Time Position Orientation Groundspeed Altitude Reporting Facility
EDT Latitude Longitude Course Direction KTS MPH feet Rate Location/Type
01:00PM 37.5500 -77.3167 45° Northeast 184 212 2,700  Level Potomac TRACON
01:01PM 37.6000 -77.2833 28° Northeast 235 270 4,500 2,040 Climbing Potomac TRACON
01:02PM 37.7383 -77.0618 38° Northeast  Level FlightAware Approximate
01:02PM 37.6667 -77.2333 31° Northeast 262 302 6,800  Level Potomac TRACON
01:03PM 37.8201 -76.9799 38° Northeast  Level FlightAware Approximate
01:03PM 37.7561 -77.1678 30° Northeast 283 326 7,700  Level Washington Center
01:04PM 37.9020 -76.8981 38° Northeast  Level FlightAware Approximate
01:04PM 37.8072 -77.0953 48° Northeast 277 319 8,900  Level Washington Center
01:05PM 37.9823 -76.8139 45° Northeast  Level FlightAware Approximate
01:05PM 37.8583 -77.0147 51° Northeast 282 325 10,600  Level Washington Center
01:06PM 37.9156 -76.9317 49° Northeast 294 338 12,100 1,680 Climbing Washington Center
01:07PM 37.9750 -76.8378 51° Northeast 320 368 14,000 1,860 Climbing Washington Center
01:08PM 38.0406 -76.7467 48° Northeast 331 381 15,900 1,500 Climbing Washington Center
01:09PM 38.1058 -76.6525 49° Northeast 342 394 17,100 540 Climbing Washington Center
01:10PM 38.1797 -76.5506 47° Northeast 364 419 17,000 -60 Descending Washington Center
01:11PM 38.2556 -76.4458 47° Northeast 383 441 17,000  Level Washington Center
01:12PM 38.3397 -76.3542 40° Northeast 391 450 17,100  Climbing Washington Center
01:13PM 38.4297 -76.2703 36° Northeast 391 450 17,000 -60 Descending Washington Center
01:14PM 38.5200 -76.1861 36° Northeast 396 456 17,000 -60 Level Washington Center
01:15PM 38.6225 -76.0858 37° Northeast 410 472 16,900 -60 Descending Washington Center
01:16PM 38.7000 -75.9775 47° Northeast 405 466 16,900  Level Washington Center
01:17PM 38.7650 -75.8606 54° Northeast 398 458 16,900  Level Washington Center
01:18PM 38.8297 -75.7383 56° Northeast 408 470 16,900  Level Washington Center
01:19PM 38.8967 -75.6208 54° Northeast 408 470 16,900  Level Washington Center
01:20PM 38.9633 -75.5061 53° Northeast 403 464 16,900  Level Washington Center
01:21PM 39.0297 -75.3833 55° Northeast 403 464 16,900  Level Washington Center
01:22PM 39.0942 -75.2628 55° Northeast 403 464 16,900  Level Washington Center
01:23PM 39.1606 -75.1419 55° Northeast 403 464 16,900  Level Washington Center
01:24PM 39.2244 -75.0208 56° Northeast 403 464 16,900  Level Washington Center
01:26PM 39.3533 -74.7819 55° Northeast 404 465 16,900  Level New York Center
01:27PM 39.4178 -74.6622 55° Northeast 409 471 16,900 -360 Level New York Center
01:28PM 39.4756 -74.5497 56° Northeast 399 459 16,300 -900 Descending New York Center
01:29PM 39.5264 -74.4581 54° Northeast 364 419 15,100 -660 Descending New York Center
01:30PM 39.5819 -74.3533 55° Northeast 326 375 15,000 -60 Descending New York Center
01:31PM 39.6328 -74.2508 57° Northeast 326 375 15,000 -360 Level New York Center
01:32PM 39.6900 -74.1539 52° Northeast 332 382 14,300 -1,020 Descending New York Center
01:33PM 39.7522 -74.0892 39° Northeast 317 365 13,000 -1,440 Descending New York Center
01:34PM 39.8231 -74.0872 North 258 297 11,500 -1,020 Descending New York Center
01:35PM 39.8967 -74.1450 329° Northwest 261 300 11,000 -300 Descending New York Center
01:36PM 39.9681 -74.1267 11° North 258 297 11,000  Level New York Center
01:37PM 39.9875 -74.0247 76° East 263 303 11,000  Level New York Center
01:38PM 40.0214 -73.9233 66° East 290 334 11,000 -360 Level New York Center
01:39PM 40.0700 -73.8197 58° Northeast 295 339 10,300 -1,080 Descending New York Center
01:40PM 40.1281 -73.7489 43° Northeast 290 334 8,900 -1,800 Descending New York Center
01:41PM 40.1833 -73.7000 34° Northeast 274 315 7,100 -1,560 Descending New York TRACON
01:42PM 40.2458 -73.6236 43° Northeast 268 308 5,900 -960 Descending New York Center
01:43PM 40.3031 -73.5906 24° Northeast 251 289 5,100 -1,020 Descending New York Center
01:44PM 40.3778 -73.6044 352° North 230 265 3,900 -1,140 Descending New York Center
01:45PM 40.4333 -73.6167 350° North 240 276 3,100 -540 Descending New York TRACON
01:46PM 40.5000 -73.6333 349° North 240 276 3,000 -120 Descending New York TRACON